sensor_id;sensor_type;location;lat;lon;timestamp;temperature;humidity
23207;DHT22;11773;52.570;13.052;2023-02-02T00:01:52;5.50;99.90
23207;DHT22;11773;52.570;13.052;2023-02-02T00:04:27;5.40;99.90
23207;DHT22;11773;52.570;13.052;2023-02-02T00:06:59;5.50;99.90
23207;DHT22;11773;52.570;13.052;2023-02-02T00:09:31;5.40;99.90
23207;DHT22;11773;52.570;13.052;2023-02-02T00:12:01;5.50;99.90
23207;DHT22;11773;52.570;13.052;2023-02-02T00:14:30;5.60;99.90
23207;DHT22;11773;52.570;13.052;2023-02-02T00:17:00;5.50;99.90
23207;DHT22;11773;52.570;13.052;2023-02-02T00:19:30;5.50;99.90
23207;DHT22;11773;52.570;13.052;2023-02-02T00:22:00;5.60;99.90
23207;DHT22;11773;52.570;13.052;2023-02-02T00:24:29;5.60;99.90
23207;DHT22;11773;52.570;13.052;2023-02-02T00:26:59;5.60;99.90
23207;DHT22;11773;52.570;13.052;2023-02-02T00:29:30;5.70;99.90
23207;DHT22;11773;52.570;13.052;2023-02-02T00:31:59;5.70;99.90
23207;DHT22;11773;52.570;13.052;2023-02-02T00:34:29;5.70;99.90
23207;DHT22;11773;52.570;13.052;2023-02-02T00:36:58;5.70;99.90
23207;DHT22;11773;52.570;13.052;2023-02-02T00:39:28;5.80;99.90
23207;DHT22;11773;52.570;13.052;2023-02-02T00:41:57;5.80;99.90
23207;DHT22;11773;52.570;13.052;2023-02-02T00:44:27;5.90;99.90
23207;DHT22;11773;52.570;13.052;2023-02-02T00:47:15;5.80;99.90
23207;DHT22;11773;52.570;13.052;2023-02-02T00:49:44;5.90;99.90
23207;DHT22;11773;52.570;13.052;2023-02-02T00:52:14;5.90;99.90
23207;DHT22;11773;52.570;13.052;2023-02-02T00:54:43;5.90;99.90
23207;DHT22;11773;52.570;13.052;2023-02-02T00:57:13;5.90;99.90
23207;DHT22;11773;52.570;13.052;2023-02-02T00:59:43;5.90;99.90
23207;DHT22;11773;52.570;13.052;2023-02-02T01:02:12;5.80;99.90
23207;DHT22;11773;52.570;13.052;2023-02-02T01:04:42;5.70;99.90
23207;DHT22;11773;52.570;13.052;2023-02-02T01:07:11;5.70;99.90
23207;DHT22;11773;52.570;13.052;2023-02-02T01:09:41;5.80;99.90
23207;DHT22;11773;52.570;13.052;2023-02-02T01:12:10;5.80;99.90
23207;DHT22;11773;52.570;13.052;2023-02-02T01:14:40;5.90;99.90
23207;DHT22;11773;52.570;13.052;2023-02-02T01:17:09;6.00;99.90
23207;DHT22;11773;52.570;13.052;2023-02-02T01:19:39;5.90;99.90
23207;DHT22;11773;52.570;13.052;2023-02-02T01:22:09;5.90;99.90
23207;DHT22;11773;52.570;13.052;2023-02-02T01:24:38;5.90;99.90
23207;DHT22;11773;52.570;13.052;2023-02-02T01:27:07;5.90;99.90
23207;DHT22;11773;52.570;13.052;2023-02-02T01:29:37;5.90;99.90
23207;DHT22;11773;52.570;13.052;2023-02-02T01:32:07;5.90;99.90
23207;DHT22;11773;52.570;13.052;2023-02-02T01:34:37;5.90;99.90
23207;DHT22;11773;52.570;13.052;2023-02-02T01:37:10;6.00;99.90
23207;DHT22;11773;52.570;13.052;2023-02-02T01:39:39;6.00;99.90
23207;DHT22;11773;52.570;13.052;2023-02-02T01:42:15;6.10;99.90
23207;DHT22;11773;52.570;13.052;2023-02-02T01:47:57;6.10;99.90
23207;DHT22;11773;52.570;13.052;2023-02-02T01:50:30;6.00;99.90
23207;DHT22;11773;52.570;13.052;2023-02-02T01:53:02;6.00;99.90
23207;DHT22;11773;52.570;13.052;2023-02-02T01:55:37;6.20;99.90
23207;DHT22;11773;52.570;13.052;2023-02-02T01:58:23;6.20;99.90
23207;DHT22;11773;52.570;13.052;2023-02-02T02:00:54;6.10;99.90
23207;DHT22;11773;52.570;13.052;2023-02-02T02:03:26;6.10;99.90
23207;DHT22;11773;52.570;13.052;2023-02-02T02:06:04;6.10;99.90
23207;DHT22;11773;52.570;13.052;2023-02-02T02:08:45;6.10;99.90
23207;DHT22;11773;52.570;13.052;2023-02-02T02:11:15;6.20;99.90
23207;DHT22;11773;52.570;13.052;2023-02-02T02:13:45;6.20;99.90
23207;DHT22;11773;52.570;13.052;2023-02-02T02:16:53;6.20;99.90
23207;DHT22;11773;52.570;13.052;2023-02-02T02:20:08;6.10;99.90
23207;DHT22;11773;52.570;13.052;2023-02-02T02:23:32;6.20;99.90
23207;DHT22;11773;52.570;13.052;2023-02-02T02:27:06;6.20;99.90
23207;DHT22;11773;52.570;13.052;2023-02-02T02:30:00;6.20;99.90
23207;DHT22;11773;52.570;13.052;2023-02-02T02:35:41;6.10;99.90
23207;DHT22;11773;52.570;13.052;2023-02-02T02:41:20;6.10;99.90
23207;DHT22;11773;52.570;13.052;2023-02-02T02:43:55;6.20;99.90
23207;DHT22;11773;52.570;13.052;2023-02-02T02:46:27;6.20;99.90
23207;DHT22;11773;52.570;13.052;2023-02-02T02:49:00;6.30;99.90
23207;DHT22;11773;52.570;13.052;2023-02-02T02:51:45;6.20;99.90
23207;DHT22;11773;52.570;13.052;2023-02-02T02:54:31;6.20;99.90
23207;DHT22;11773;52.570;13.052;2023-02-02T02:57:22;6.20;99.90
23207;DHT22;11773;52.570;13.052;2023-02-02T03:08:57;6.10;99.90
23207;DHT22;11773;52.570;13.052;2023-02-02T03:11:34;6.10;99.90
23207;DHT22;11773;52.570;13.052;2023-02-02T03:14:04;6.10;99.90
23207;DHT22;11773;52.570;13.052;2023-02-02T03:16:36;6.00;99.90
23207;DHT22;11773;52.570;13.052;2023-02-02T03:19:06;6.10;99.90
23207;DHT22;11773;52.570;13.052;2023-02-02T03:21:36;6.00;99.90
23207;DHT22;11773;52.570;13.052;2023-02-02T03:24:06;6.10;99.90
23207;DHT22;11773;52.570;13.052;2023-02-02T03:26:36;6.10;99.90
23207;DHT22;11773;52.570;13.052;2023-02-02T03:29:06;6.00;99.90
23207;DHT22;11773;52.570;13.052;2023-02-02T03:31:35;6.10;99.90
23207;DHT22;11773;52.570;13.052;2023-02-02T03:34:05;6.10;99.90
23207;DHT22;11773;52.570;13.052;2023-02-02T03:36:34;6.10;99.90
23207;DHT22;11773;52.570;13.052;2023-02-02T03:39:03;6.10;99.90
23207;DHT22;11773;52.570;13.052;2023-02-02T03:41:33;6.10;99.90
23207;DHT22;11773;52.570;13.052;2023-02-02T03:44:02;6.10;99.90
23207;DHT22;11773;52.570;13.052;2023-02-02T03:46:32;6.10;99.90
23207;DHT22;11773;52.570;13.052;2023-02-02T03:49:02;6.00;99.90
23207;DHT22;11773;52.570;13.052;2023-02-02T03:51:31;6.10;99.90
23207;DHT22;11773;52.570;13.052;2023-02-02T03:54:01;6.20;99.90
23207;DHT22;11773;52.570;13.052;2023-02-02T03:56:31;6.10;99.90
23207;DHT22;11773;52.570;13.052;2023-02-02T03:59:00;6.10;99.90
23207;DHT22;11773;52.570;13.052;2023-02-02T04:01:30;6.10;99.90
23207;DHT22;11773;52.570;13.052;2023-02-02T04:04:00;6.20;99.90
23207;DHT22;11773;52.570;13.052;2023-02-02T04:06:30;6.20;99.90
23207;DHT22;11773;52.570;13.052;2023-02-02T04:08:59;6.20;99.90
23207;DHT22;11773;52.570;13.052;2023-02-02T04:11:29;6.10;99.90
23207;DHT22;11773;52.570;13.052;2023-02-02T04:13:58;6.20;99.90
23207;DHT22;11773;52.570;13.052;2023-02-02T04:16:28;6.10;99.90
23207;DHT22;11773;52.570;13.052;2023-02-02T04:18:59;6.10;99.90
23207;DHT22;11773;52.570;13.052;2023-02-02T04:21:29;6.10;99.90
23207;DHT22;11773;52.570;13.052;2023-02-02T04:23:59;6.10;99.90
23207;DHT22;11773;52.570;13.052;2023-02-02T04:26:28;6.10;99.90
23207;DHT22;11773;52.570;13.052;2023-02-02T04:28:58;6.20;99.90
23207;DHT22;11773;52.570;13.052;2023-02-02T04:31:27;6.20;99.90
23207;DHT22;11773;52.570;13.052;2023-02-02T04:33:57;6.20;99.90
23207;DHT22;11773;52.570;13.052;2023-02-02T04:36:27;6.20;99.90
23207;DHT22;11773;52.570;13.052;2023-02-02T04:38:56;6.20;99.90
23207;DHT22;11773;52.570;13.052;2023-02-02T04:41:26;6.30;99.90
23207;DHT22;11773;52.570;13.052;2023-02-02T04:43:55;6.20;99.90
23207;DHT22;11773;52.570;13.052;2023-02-02T04:46:25;6.30;99.90
23207;DHT22;11773;52.570;13.052;2023-02-02T04:48:55;6.20;99.90
23207;DHT22;11773;52.570;13.052;2023-02-02T04:51:24;6.30;99.90
23207;DHT22;11773;52.570;13.052;2023-02-02T04:53:54;6.20;99.90
23207;DHT22;11773;52.570;13.052;2023-02-02T04:56:23;6.20;99.90
23207;DHT22;11773;52.570;13.052;2023-02-02T04:58:53;6.20;99.90
23207;DHT22;11773;52.570;13.052;2023-02-02T05:01:23;6.20;99.90
23207;DHT22;11773;52.570;13.052;2023-02-02T05:03:53;6.10;99.90
23207;DHT22;11773;52.570;13.052;2023-02-02T05:06:22;6.20;99.90
23207;DHT22;11773;52.570;13.052;2023-02-02T05:08:52;6.30;99.90
23207;DHT22;11773;52.570;13.052;2023-02-02T05:11:22;6.20;99.90
23207;DHT22;11773;52.570;13.052;2023-02-02T05:13:53;6.20;99.90
23207;DHT22;11773;52.570;13.052;2023-02-02T05:16:23;6.20;99.90
23207;DHT22;11773;52.570;13.052;2023-02-02T05:18:55;6.30;99.90
23207;DHT22;11773;52.570;13.052;2023-02-02T05:21:26;6.30;99.90
23207;DHT22;11773;52.570;13.052;2023-02-02T05:23:56;6.20;99.90
23207;DHT22;11773;52.570;13.052;2023-02-02T05:26:27;6.00;99.90
23207;DHT22;11773;52.570;13.052;2023-02-02T05:28:57;6.10;99.90
23207;DHT22;11773;52.570;13.052;2023-02-02T05:31:26;6.20;99.90
23207;DHT22;11773;52.570;13.052;2023-02-02T05:33:58;6.20;99.90
23207;DHT22;11773;52.570;13.052;2023-02-02T05:36:28;6.20;99.90
23207;DHT22;11773;52.570;13.052;2023-02-02T05:38:57;6.20;99.90
23207;DHT22;11773;52.570;13.052;2023-02-02T05:41:27;6.20;99.90
23207;DHT22;11773;52.570;13.052;2023-02-02T05:43:58;6.20;99.90
23207;DHT22;11773;52.570;13.052;2023-02-02T05:46:28;6.20;99.90
23207;DHT22;11773;52.570;13.052;2023-02-02T05:48:58;6.30;99.90
23207;DHT22;11773;52.570;13.052;2023-02-02T05:51:32;6.30;99.90
23207;DHT22;11773;52.570;13.052;2023-02-02T05:54:03;6.20;99.90
23207;DHT22;11773;52.570;13.052;2023-02-02T05:56:33;6.30;99.90
23207;DHT22;11773;52.570;13.052;2023-02-02T05:59:03;6.20;99.90
23207;DHT22;11773;52.570;13.052;2023-02-02T06:01:34;6.20;99.90
23207;DHT22;11773;52.570;13.052;2023-02-02T06:04:04;6.30;99.90
23207;DHT22;11773;52.570;13.052;2023-02-02T06:06:33;6.30;99.90
23207;DHT22;11773;52.570;13.052;2023-02-02T06:09:05;6.30;99.90
23207;DHT22;11773;52.570;13.052;2023-02-02T06:11:35;6.20;99.90
23207;DHT22;11773;52.570;13.052;2023-02-02T06:14:06;6.10;99.90
23207;DHT22;11773;52.570;13.052;2023-02-02T06:16:35;6.20;99.90
23207;DHT22;11773;52.570;13.052;2023-02-02T06:19:05;6.10;99.90
23207;DHT22;11773;52.570;13.052;2023-02-02T06:21:34;6.10;99.90
23207;DHT22;11773;52.570;13.052;2023-02-02T06:24:04;6.00;99.90
23207;DHT22;11773;52.570;13.052;2023-02-02T06:26:34;6.10;99.90
23207;DHT22;11773;52.570;13.052;2023-02-02T06:29:04;6.10;99.90
23207;DHT22;11773;52.570;13.052;2023-02-02T06:31:34;6.10;99.90
23207;DHT22;11773;52.570;13.052;2023-02-02T06:34:04;6.10;99.90
23207;DHT22;11773;52.570;13.052;2023-02-02T06:36:33;6.00;99.90
23207;DHT22;11773;52.570;13.052;2023-02-02T06:39:03;6.10;99.90
23207;DHT22;11773;52.570;13.052;2023-02-02T06:41:34;6.00;99.90
23207;DHT22;11773;52.570;13.052;2023-02-02T06:44:04;5.90;99.90
23207;DHT22;11773;52.570;13.052;2023-02-02T06:46:34;5.90;99.90
23207;DHT22;11773;52.570;13.052;2023-02-02T06:49:03;5.90;99.90
23207;DHT22;11773;52.570;13.052;2023-02-02T06:51:33;5.90;99.90
23207;DHT22;11773;52.570;13.052;2023-02-02T06:54:02;5.90;99.90
23207;DHT22;11773;52.570;13.052;2023-02-02T06:56:32;5.90;99.90
23207;DHT22;11773;52.570;13.052;2023-02-02T06:59:01;5.90;99.90
23207;DHT22;11773;52.570;13.052;2023-02-02T07:01:31;6.00;99.90
23207;DHT22;11773;52.570;13.052;2023-02-02T07:04:00;5.90;99.90
23207;DHT22;11773;52.570;13.052;2023-02-02T07:06:30;5.90;99.90
23207;DHT22;11773;52.570;13.052;2023-02-02T07:08:59;5.90;99.90
23207;DHT22;11773;52.570;13.052;2023-02-02T07:11:31;5.80;99.90
23207;DHT22;11773;52.570;13.052;2023-02-02T07:14:04;5.90;99.90
23207;DHT22;11773;52.570;13.052;2023-02-02T07:16:33;5.90;99.90
23207;DHT22;11773;52.570;13.052;2023-02-02T07:19:03;5.80;99.90
23207;DHT22;11773;52.570;13.052;2023-02-02T07:21:32;5.80;99.90
23207;DHT22;11773;52.570;13.052;2023-02-02T07:24:05;5.80;99.90
23207;DHT22;11773;52.570;13.052;2023-02-02T07:26:35;5.90;99.90
23207;DHT22;11773;52.570;13.052;2023-02-02T07:29:05;6.00;99.90
23207;DHT22;11773;52.570;13.052;2023-02-02T07:31:35;6.00;99.90
23207;DHT22;11773;52.570;13.052;2023-02-02T07:34:05;6.00;99.90
23207;DHT22;11773;52.570;13.052;2023-02-02T07:36:34;6.10;99.90
23207;DHT22;11773;52.570;13.052;2023-02-02T07:39:05;6.10;99.90
23207;DHT22;11773;52.570;13.052;2023-02-02T07:41:36;6.00;99.90
23207;DHT22;11773;52.570;13.052;2023-02-02T07:44:06;6.10;99.90
23207;DHT22;11773;52.570;13.052;2023-02-02T07:46:38;6.10;99.90
23207;DHT22;11773;52.570;13.052;2023-02-02T07:49:13;6.10;99.90
23207;DHT22;11773;52.570;13.052;2023-02-02T07:51:46;6.00;99.90
23207;DHT22;11773;52.570;13.052;2023-02-02T07:54:16;6.00;99.90
23207;DHT22;11773;52.570;13.052;2023-02-02T07:56:45;6.00;99.90
23207;DHT22;11773;52.570;13.052;2023-02-02T07:59:14;6.00;99.90
23207;DHT22;11773;52.570;13.052;2023-02-02T08:01:44;6.10;99.90
23207;DHT22;11773;52.570;13.052;2023-02-02T08:04:14;6.20;99.90
23207;DHT22;11773;52.570;13.052;2023-02-02T08:06:43;6.20;99.90
23207;DHT22;11773;52.570;13.052;2023-02-02T08:09:13;6.10;99.90
23207;DHT22;11773;52.570;13.052;2023-02-02T08:11:42;6.20;99.90
23207;DHT22;11773;52.570;13.052;2023-02-02T08:14:12;6.30;99.90
23207;DHT22;11773;52.570;13.052;2023-02-02T08:16:41;6.30;99.90
23207;DHT22;11773;52.570;13.052;2023-02-02T08:19:11;6.20;99.90
23207;DHT22;11773;52.570;13.052;2023-02-02T08:21:40;6.20;99.90
23207;DHT22;11773;52.570;13.052;2023-02-02T08:24:10;6.20;99.90
23207;DHT22;11773;52.570;13.052;2023-02-02T08:26:39;6.20;99.90
23207;DHT22;11773;52.570;13.052;2023-02-02T08:29:09;6.20;99.90
23207;DHT22;11773;52.570;13.052;2023-02-02T08:31:43;6.20;99.90
23207;DHT22;11773;52.570;13.052;2023-02-02T08:34:13;6.10;99.90
23207;DHT22;11773;52.570;13.052;2023-02-02T08:36:42;6.20;99.90
23207;DHT22;11773;52.570;13.052;2023-02-02T08:39:12;6.20;99.90
23207;DHT22;11773;52.570;13.052;2023-02-02T08:41:42;6.30;99.90
23207;DHT22;11773;52.570;13.052;2023-02-02T08:44:14;6.40;99.90
23207;DHT22;11773;52.570;13.052;2023-02-02T08:46:45;6.50;99.90
23207;DHT22;11773;52.570;13.052;2023-02-02T08:49:15;6.30;99.90
23207;DHT22;11773;52.570;13.052;2023-02-02T08:51:44;6.40;99.90
23207;DHT22;11773;52.570;13.052;2023-02-02T08:54:14;6.50;99.90
23207;DHT22;11773;52.570;13.052;2023-02-02T08:56:43;6.40;99.90
23207;DHT22;11773;52.570;13.052;2023-02-02T08:59:12;6.50;99.90
23207;DHT22;11773;52.570;13.052;2023-02-02T09:01:42;6.50;99.90
23207;DHT22;11773;52.570;13.052;2023-02-02T09:04:13;6.60;99.90
23207;DHT22;11773;52.570;13.052;2023-02-02T09:06:43;6.60;99.90
23207;DHT22;11773;52.570;13.052;2023-02-02T09:09:15;6.80;99.90
23207;DHT22;11773;52.570;13.052;2023-02-02T09:11:44;6.80;99.90
23207;DHT22;11773;52.570;13.052;2023-02-02T09:14:14;6.80;99.90
23207;DHT22;11773;52.570;13.052;2023-02-02T09:16:43;6.80;99.90
23207;DHT22;11773;52.570;13.052;2023-02-02T09:19:13;6.80;99.90
23207;DHT22;11773;52.570;13.052;2023-02-02T09:21:42;6.50;99.90
23207;DHT22;11773;52.570;13.052;2023-02-02T09:24:13;6.70;99.90
23207;DHT22;11773;52.570;13.052;2023-02-02T09:26:43;6.70;99.90
23207;DHT22;11773;52.570;13.052;2023-02-02T09:29:15;6.80;99.90
23207;DHT22;11773;52.570;13.052;2023-02-02T09:31:44;6.80;99.90
23207;DHT22;11773;52.570;13.052;2023-02-02T09:34:15;6.90;99.90
23207;DHT22;11773;52.570;13.052;2023-02-02T09:36:44;7.00;99.90
23207;DHT22;11773;52.570;13.052;2023-02-02T09:39:14;7.10;99.90
23207;DHT22;11773;52.570;13.052;2023-02-02T09:45:09;7.20;99.90
23207;DHT22;11773;52.570;13.052;2023-02-02T09:47:51;7.30;99.90
23207;DHT22;11773;52.570;13.052;2023-02-02T09:50:45;7.20;99.90
23207;DHT22;11773;52.570;13.052;2023-02-02T09:53:26;7.10;99.90
23207;DHT22;11773;52.570;13.052;2023-02-02T09:55:58;7.20;99.90
23207;DHT22;11773;52.570;13.052;2023-02-02T09:58:33;7.20;99.90
23207;DHT22;11773;52.570;13.052;2023-02-02T10:01:09;7.20;99.90
23207;DHT22;11773;52.570;13.052;2023-02-02T10:07:21;7.40;99.90
23207;DHT22;11773;52.570;13.052;2023-02-02T10:10:04;7.40;99.90
23207;DHT22;11773;52.570;13.052;2023-02-02T10:12:43;7.30;99.90
23207;DHT22;11773;52.570;13.052;2023-02-02T10:18:41;7.50;99.90
23207;DHT22;11773;52.570;13.052;2023-02-02T10:24:27;7.50;99.90
23207;DHT22;11773;52.570;13.052;2023-02-02T10:27:01;7.50;99.90
23207;DHT22;11773;52.570;13.052;2023-02-02T10:38:36;7.40;99.90
23207;DHT22;11773;52.570;13.052;2023-02-02T10:44:00;7.50;99.90
23207;DHT22;11773;52.570;13.052;2023-02-02T10:46:47;7.60;99.90
23207;DHT22;11773;52.570;13.052;2023-02-02T10:52:14;7.70;99.90
23207;DHT22;11773;52.570;13.052;2023-02-02T10:55:05;7.70;99.90
23207;DHT22;11773;52.570;13.052;2023-02-02T11:00:48;7.50;99.90
23207;DHT22;11773;52.570;13.052;2023-02-02T11:03:31;7.50;99.90
23207;DHT22;11773;52.570;13.052;2023-02-02T11:06:03;7.60;99.90
23207;DHT22;11773;52.570;13.052;2023-02-02T11:08:53;7.50;99.90
23207;DHT22;11773;52.570;13.052;2023-02-02T11:11:53;7.60;99.90
23207;DHT22;11773;52.570;13.052;2023-02-02T11:17:10;7.50;99.90
23207;DHT22;11773;52.570;13.052;2023-02-02T11:19:38;7.60;99.90
23207;DHT22;11773;52.570;13.052;2023-02-02T11:22:22;7.60;99.90
23207;DHT22;11773;52.570;13.052;2023-02-02T11:24:52;7.60;99.90
23207;DHT22;11773;52.570;13.052;2023-02-02T11:27:42;7.70;99.90
23207;DHT22;11773;52.570;13.052;2023-02-02T11:32:52;7.60;99.90
23207;DHT22;11773;52.570;13.052;2023-02-02T11:35:24;7.60;99.90
23207;DHT22;11773;52.570;13.052;2023-02-02T11:38:09;7.70;99.90
23207;DHT22;11773;52.570;13.052;2023-02-02T11:40:45;7.90;99.90
23207;DHT22;11773;52.570;13.052;2023-02-02T11:43:28;7.80;99.90
23207;DHT22;11773;52.570;13.052;2023-02-02T11:46:18;7.70;99.90
23207;DHT22;11773;52.570;13.052;2023-02-02T11:49:05;7.80;99.90
23207;DHT22;11773;52.570;13.052;2023-02-02T11:51:39;7.80;99.90
23207;DHT22;11773;52.570;13.052;2023-02-02T11:54:27;7.80;99.90
23207;DHT22;11773;52.570;13.052;2023-02-02T11:57:06;7.80;99.90
23207;DHT22;11773;52.570;13.052;2023-02-02T11:59:41;7.80;99.90
23207;DHT22;11773;52.570;13.052;2023-02-02T12:05:11;8.20;99.90
23207;DHT22;11773;52.570;13.052;2023-02-02T12:07:28;8.30;99.90
23207;DHT22;11773;52.570;13.052;2023-02-02T12:10:03;8.20;99.90
23207;DHT22;11773;52.570;13.052;2023-02-02T12:12:42;7.20;99.90
23207;DHT22;11773;52.570;13.052;2023-02-02T12:15:43;6.80;99.90
23207;DHT22;11773;52.570;13.052;2023-02-02T12:21:32;6.60;99.90
23207;DHT22;11773;52.570;13.052;2023-02-02T12:30:15;6.70;99.90
23207;DHT22;11773;52.570;13.052;2023-02-02T12:33:14;6.80;99.90
23207;DHT22;11773;52.570;13.052;2023-02-02T12:36:09;6.90;99.90
23207;DHT22;11773;52.570;13.052;2023-02-02T12:39:19;6.80;99.90
23207;DHT22;11773;52.570;13.052;2023-02-02T12:54:03;6.90;99.90
23207;DHT22;11773;52.570;13.052;2023-02-02T13:00:00;7.10;99.90
23207;DHT22;11773;52.570;13.052;2023-02-02T13:06:04;7.10;99.90
23207;DHT22;11773;52.570;13.052;2023-02-02T13:08:49;7.10;99.90
23207;DHT22;11773;52.570;13.052;2023-02-02T13:14:24;7.10;99.90
23207;DHT22;11773;52.570;13.052;2023-02-02T13:16:58;7.00;99.90
23207;DHT22;11773;52.570;13.052;2023-02-02T13:19:40;7.20;99.90
23207;DHT22;11773;52.570;13.052;2023-02-02T13:22:18;7.00;99.90
23207;DHT22;11773;52.570;13.052;2023-02-02T13:24:57;7.10;99.90
23207;DHT22;11773;52.570;13.052;2023-02-02T13:27:30;7.10;99.90
23207;DHT22;11773;52.570;13.052;2023-02-02T13:32:51;7.20;99.90
23207;DHT22;11773;52.570;13.052;2023-02-02T13:38:17;7.10;99.90
23207;DHT22;11773;52.570;13.052;2023-02-02T13:40:54;7.20;99.90
23207;DHT22;11773;52.570;13.052;2023-02-02T13:43:55;7.00;99.90
23207;DHT22;11773;52.570;13.052;2023-02-02T13:46:33;7.10;99.90
23207;DHT22;11773;52.570;13.052;2023-02-02T13:49:09;7.10;99.90
23207;DHT22;11773;52.570;13.052;2023-02-02T13:54:44;7.10;99.90
23207;DHT22;11773;52.570;13.052;2023-02-02T13:57:36;7.00;99.90
23207;DHT22;11773;52.570;13.052;2023-02-02T14:00:18;7.00;99.90
23207;DHT22;11773;52.570;13.052;2023-02-02T14:02:59;7.10;99.90
23207;DHT22;11773;52.570;13.052;2023-02-02T14:05:37;7.10;99.90
23207;DHT22;11773;52.570;13.052;2023-02-02T14:08:20;7.10;99.90
23207;DHT22;11773;52.570;13.052;2023-02-02T14:13:42;7.20;99.90
23207;DHT22;11773;52.570;13.052;2023-02-02T14:19:45;7.00;99.90
23207;DHT22;11773;52.570;13.052;2023-02-02T14:24:50;6.90;99.90
23207;DHT22;11773;52.570;13.052;2023-02-02T14:30:12;6.80;99.90
23207;DHT22;11773;52.570;13.052;2023-02-02T14:32:40;6.80;99.90
23207;DHT22;11773;52.570;13.052;2023-02-02T14:38:01;6.70;99.90
23207;DHT22;11773;52.570;13.052;2023-02-02T14:40:42;6.70;99.90
23207;DHT22;11773;52.570;13.052;2023-02-02T14:43:41;6.70;99.90
23207;DHT22;11773;52.570;13.052;2023-02-02T14:51:30;6.50;99.90
23207;DHT22;11773;52.570;13.052;2023-02-02T14:54:04;6.60;99.90
23207;DHT22;11773;52.570;13.052;2023-02-02T14:56:47;6.60;99.90
23207;DHT22;11773;52.570;13.052;2023-02-02T14:59:23;6.60;99.90
23207;DHT22;11773;52.570;13.052;2023-02-02T15:05:42;6.60;99.90
23207;DHT22;11773;52.570;13.052;2023-02-02T15:08:22;6.60;99.90
23207;DHT22;11773;52.570;13.052;2023-02-02T15:11:04;6.60;99.90
23207;DHT22;11773;52.570;13.052;2023-02-02T15:13:33;6.50;99.90
23207;DHT22;11773;52.570;13.052;2023-02-02T15:16:10;6.40;99.90
23207;DHT22;11773;52.570;13.052;2023-02-02T15:18:43;6.50;99.90
23207;DHT22;11773;52.570;13.052;2023-02-02T15:21:16;6.40;99.90
23207;DHT22;11773;52.570;13.052;2023-02-02T15:23:48;6.50;99.90
23207;DHT22;11773;52.570;13.052;2023-02-02T15:26:24;6.40;99.90
23207;DHT22;11773;52.570;13.052;2023-02-02T15:29:00;6.40;99.90
23207;DHT22;11773;52.570;13.052;2023-02-02T15:31:35;6.30;99.90
23207;DHT22;11773;52.570;13.052;2023-02-02T15:34:33;6.30;99.90
23207;DHT22;11773;52.570;13.052;2023-02-02T15:37:01;6.30;99.90
23207;DHT22;11773;52.570;13.052;2023-02-02T15:39:44;6.20;99.90
23207;DHT22;11773;52.570;13.052;2023-02-02T15:48:24;6.10;99.90
23207;DHT22;11773;52.570;13.052;2023-02-02T15:50:43;6.10;99.90
23207;DHT22;11773;52.570;13.052;2023-02-02T15:53:22;6.10;99.90
23207;DHT22;11773;52.570;13.052;2023-02-02T15:55:48;6.00;99.90
23207;DHT22;11773;52.570;13.052;2023-02-02T15:58:27;6.00;99.90
23207;DHT22;11773;52.570;13.052;2023-02-02T16:01:04;6.10;99.90
23207;DHT22;11773;52.570;13.052;2023-02-02T16:06:18;5.90;99.90
23207;DHT22;11773;52.570;13.052;2023-02-02T16:08:49;5.90;99.90
23207;DHT22;11773;52.570;13.052;2023-02-02T16:11:21;5.90;99.90
23207;DHT22;11773;52.570;13.052;2023-02-02T16:14:02;5.90;99.90
23207;DHT22;11773;52.570;13.052;2023-02-02T16:16:36;6.00;99.90
23207;DHT22;11773;52.570;13.052;2023-02-02T16:19:15;5.90;99.90
23207;DHT22;11773;52.570;13.052;2023-02-02T16:21:55;5.90;99.90
23207;DHT22;11773;52.570;13.052;2023-02-02T16:24:47;5.90;99.90
23207;DHT22;11773;52.570;13.052;2023-02-02T16:27:24;5.90;99.90
23207;DHT22;11773;52.570;13.052;2023-02-02T16:29:58;5.80;99.90
23207;DHT22;11773;52.570;13.052;2023-02-02T16:32:32;5.80;99.90
23207;DHT22;11773;52.570;13.052;2023-02-02T16:35:23;5.80;99.90
23207;DHT22;11773;52.570;13.052;2023-02-02T16:41:11;5.50;99.90
23207;DHT22;11773;52.570;13.052;2023-02-02T16:43:42;5.50;99.90
23207;DHT22;11773;52.570;13.052;2023-02-02T16:46:13;5.60;99.90
23207;DHT22;11773;52.570;13.052;2023-02-02T16:48:56;5.60;99.90
23207;DHT22;11773;52.570;13.052;2023-02-02T16:51:28;5.50;99.90
23207;DHT22;11773;52.570;13.052;2023-02-02T16:56:42;5.60;99.90
23207;DHT22;11773;52.570;13.052;2023-02-02T16:59:22;5.60;99.90
23207;DHT22;11773;52.570;13.052;2023-02-02T17:02:43;5.60;99.90
23207;DHT22;11773;52.570;13.052;2023-02-02T17:04:32;5.40;99.90
23207;DHT22;11773;52.570;13.052;2023-02-02T17:07:08;5.40;99.90
23207;DHT22;11773;52.570;13.052;2023-02-02T17:09:42;5.50;99.90
23207;DHT22;11773;52.570;13.052;2023-02-02T17:14:57;5.30;99.90
23207;DHT22;11773;52.570;13.052;2023-02-02T17:17:29;5.20;99.90
23207;DHT22;11773;52.570;13.052;2023-02-02T17:19:59;5.20;99.90
23207;DHT22;11773;52.570;13.052;2023-02-02T17:22:30;5.20;99.90
23207;DHT22;11773;52.570;13.052;2023-02-02T17:25:01;5.10;99.90
23207;DHT22;11773;52.570;13.052;2023-02-02T17:27:32;5.10;99.90
23207;DHT22;11773;52.570;13.052;2023-02-02T17:30:04;5.10;99.90
23207;DHT22;11773;52.570;13.052;2023-02-02T17:32:34;5.10;99.90
23207;DHT22;11773;52.570;13.052;2023-02-02T17:35:14;5.10;99.90
23207;DHT22;11773;52.570;13.052;2023-02-02T17:37:45;5.10;99.90
23207;DHT22;11773;52.570;13.052;2023-02-02T17:40:16;5.10;99.90
23207;DHT22;11773;52.570;13.052;2023-02-02T17:42:49;5.00;99.90
23207;DHT22;11773;52.570;13.052;2023-02-02T17:45:23;5.00;99.90
23207;DHT22;11773;52.570;13.052;2023-02-02T17:47:59;5.00;99.90
23207;DHT22;11773;52.570;13.052;2023-02-02T17:50:31;5.00;99.90
23207;DHT22;11773;52.570;13.052;2023-02-02T17:53:02;5.00;99.90
23207;DHT22;11773;52.570;13.052;2023-02-02T17:55:35;5.00;99.90
23207;DHT22;11773;52.570;13.052;2023-02-02T17:58:06;4.90;99.90
23207;DHT22;11773;52.570;13.052;2023-02-02T18:00:37;4.80;99.90
23207;DHT22;11773;52.570;13.052;2023-02-02T18:03:20;4.80;99.90
23207;DHT22;11773;52.570;13.052;2023-02-02T18:05:48;4.80;99.90
23207;DHT22;11773;52.570;13.052;2023-02-02T18:08:17;4.70;99.90
23207;DHT22;11773;52.570;13.052;2023-02-02T18:10:48;4.60;99.90
23207;DHT22;11773;52.570;13.052;2023-02-02T18:13:20;4.70;99.90
23207;DHT22;11773;52.570;13.052;2023-02-02T18:15:51;4.60;99.90
23207;DHT22;11773;52.570;13.052;2023-02-02T18:18:23;4.60;99.90
23207;DHT22;11773;52.570;13.052;2023-02-02T18:20:54;4.60;99.90
23207;DHT22;11773;52.570;13.052;2023-02-02T18:23:25;4.70;99.90
23207;DHT22;11773;52.570;13.052;2023-02-02T18:25:55;4.70;99.90
23207;DHT22;11773;52.570;13.052;2023-02-02T18:28:24;4.60;99.90
23207;DHT22;11773;52.570;13.052;2023-02-02T18:30:54;4.60;99.90